Guarani International Airport
SGES : now visible

Airfield :











YOU CAN JOIN US ON...

 
LOGIN :

Register | Disclaimer

   EN    FR    IT 

 









Legend :    VFR   Marginal VFR   IFR   Intensive IFR   Very Intensive IFR
Visi :
Ceiling :
>= 8 km
>= 3000ft
5 to 8 km
1000 to 3000 ft
1500m to 5 km
500 to 1000 ft
800 to 1500m
200 to 500 ft
< 800m
< 200 ft
Symbols :   Thunderstorms  Fog  Heavy snow  Heavy precipitations  Wind > 20 kt






- Airport Elevation : 846 ft
- IATA code : AGT


SGES - Guarani International

CURRENT METAR :
  • 050300Z 07010KT 1500 RABR BKN002 OVC010 19/19 Q1018

EXPIRED METARs :
  • 050200Z 09010KT 1200 RABR BKN002 OVC010 19/19 Q1018
  • 050100Z 07008KT 1200 RABR BKN002 OVC010 19/19 Q1018

TAF TAF SGES
Valid from the 05 at 00:00 until the 06 at 00:00 UTC


042300Z 0500/0600 12005KT 0100 RADZ FG OVC001 TX20/0519Z TN11/0600Z
BECMG 0507/0510 VRB02KT 0100 TS RAFG OVC005 FEW040CB
TEMPO 0512/0514 32007KT 0100 +TSRA OVC005 FEW040CB
BECMG 0515/0518 2000 TSRA OVC010 FEW040CB
BECMG 0520/0523 24012KT 7000 -TSRA BKN010 FEW040CB
SGFA FIR / South America



MET'MAP, your aeronautical weather chart ! - Copyright ORBIFLY December 2007 - Disclaimer

ORBIFLY MET'MAP TEAM :

Programming & Development : Alexandra Zaïnal
Concept & original design : Baudouin d'Aumeries
Assistance for programming : Marc-Olivier Méhu
Technical & hardware support : Manuel Goepfert

Contact : metmap@orbifly.com




SOURCES & CREDITS :

   NOAA       Earth
Advisory